Algowood — VCTD — position and weather

sailwx.info

Track history (hours):
 
Tides and Currents Weather Stations Pressure Air Temp Water Temp Dewpoint Dewpoint Depression Visibility Wind Speed Wind Dir Waves Ship Positions

Algowood

Last reported at 2016-Sep-23 04:33 UTC. Time now 2016-Sep-27 05:18 UTC.
Position N 45°16' W 073°57'.

Length 223 m; draft 5.5 m.

Type: Cargo ship. MMSI: 316001802.

Date/timePositionNaut miles runAvg speedWind from/ knotsBaromVisibWave heightAir tempDewpointWater temp
2016-Sep-23 04:33N 45°16' W 073°57'3 2.9
2016-Sep-23 03:33N 45°19' W 073°55'1 1.0
2016-Sep-23 02:33N 45°20' W 073°55'7 6.6
2016-Sep-23 01:32N 45°24' W 073°47'7 7.0
2016-Sep-23 00:33N 45°24' W 073°38'1 1.2
2016-Sep-22 23:33N 45°24' W 073°36'0 0.0
2016-Sep-22 20:33N 45°24' W 073°36'6 0.8
2016-Sep-22 12:31N 45°24' W 073°45'17 1.4
2016-Sep-22 00:31N 45°13' W 074°03'253 6.7
2016-Sep-20 10:33N 43°12' W 079°13'3 1.5
2016-Sep-20 08:32N 43°09' W 079°12'  
Track history (hours):
 
Tides and Currents Weather Stations Pressure Air Temp Water Temp Dewpoint Dewpoint Depression Visibility Wind Speed Wind Dir Waves Ship Positions

Algowood

Last reported at 2016-Sep-23 04:33 UTC. Time now 2016-Sep-27 05:18 UTC.
Position N 45°16' W 073°57'.

Length 223 m; draft 5.5 m.

Type: Cargo ship. MMSI: 316001802.

Date/timePositionNaut miles runAvg speedWind from/ knotsBaromVisibWave heightAir tempDewpointWater temp
2016-Sep-23 04:33N 45°16' W 073°57'3 2.9
2016-Sep-23 03:33N 45°19' W 073°55'1 1.0
2016-Sep-23 02:33N 45°20' W 073°55'7 6.6
2016-Sep-23 01:32N 45°24' W 073°47'7 7.0
2016-Sep-23 00:33N 45°24' W 073°38'1 1.2
2016-Sep-22 23:33N 45°24' W 073°36'0 0.0
2016-Sep-22 20:33N 45°24' W 073°36'6 0.8
2016-Sep-22 12:31N 45°24' W 073°45'17 1.4
2016-Sep-22 00:31N 45°13' W 074°03'253 6.7
2016-Sep-20 10:33N 43°12' W 079°13'3 1.5
2016-Sep-20 08:32N 43°09' W 079°12'  

Dump ship's entire track history